Time;durP1;ratioP1;P1;durP2;ratioP2;P2;SDS_P1;SDS_P2;PMS_P1;PMS_P2;Temp;Humidity;BMP_temperature;BMP_pressure;BME280_temperature;BME280_humidity;BME280_pressure;Samples;Min_cycle;Max_cycle;Signal;HPM_P1;HPM_P2
2022/11/21 00:01:59;;;;;;;3.40;0.40;;;;;;;8.01;81.28;99225.22;10258489;28;20051;-90
2022/11/21 00:07:00;;;;;;;7.60;0.70;;;;;;;8.04;81.49;99223.00;10246904;28;20087;-89
2022/11/21 00:12:02;;;;;;;5.00;0.40;;;;;;;8.04;81.59;99217.66;10254633;28;20533;-88
2022/11/21 00:17:04;;;;;;;4.43;0.80;;;;;;;8.03;81.15;99213.31;10213588;28;20044;-89
2022/11/21 00:22:05;;;;;;;4.60;0.57;;;;;;;8.00;81.39;99213.69;10235208;28;20054;-89
2022/11/21 00:27:07;;;;;;;3.42;0.40;;;;;;;8.06;81.10;99207.59;10286437;28;20408;-88
2022/11/21 00:32:08;;;;;;;1.17;0.55;;;;;;;8.07;81.06;99209.22;10311878;28;20055;-90
2022/11/21 00:37:10;;;;;;;4.20;0.28;;;;;;;8.10;81.17;99216.06;10315090;28;20049;-88
2022/11/21 00:42:14;;;;;;;1.58;0.55;;;;;;;8.06;81.06;99204.91;10304719;28;20050;-89
2022/11/21 00:47:16;;;;;;;4.53;0.20;;;;;;;8.09;80.99;99203.69;10320509;28;20674;-89
2022/11/21 00:52:18;;;;;;;2.72;0.20;;;;;;;8.09;80.67;99211.72;10305018;28;20113;-89
2022/11/21 00:57:19;;;;;;;0.75;0.20;;;;;;;8.08;81.50;99205.56;10321989;28;20089;-89
2022/11/21 01:02:21;;;;;;;2.72;0.20;;;;;;;8.04;80.78;99206.13;10321108;28;20129;-89
2022/11/21 01:07:24;;;;;;;3.28;0.28;;;;;;;7.97;81.07;99199.84;10309024;28;20046;-88
2022/11/21 01:12:25;;;;;;;0.47;0.10;;;;;;;8.01;80.97;99191.25;10325651;28;20400;-89
2022/11/21 01:17:27;;;;;;;2.88;0.15;;;;;;;8.05;81.21;99195.22;10286449;28;20073;-90
2022/11/21 01:22:28;;;;;;;1.88;0.25;;;;;;;8.16;80.52;99198.44;10316837;28;20050;-89
2022/11/21 01:27:30;;;;;;;1.83;0.35;;;;;;;8.18;80.82;99196.41;10301970;28;20066;-89
2022/11/21 01:32:31;;;;;;;1.45;0.20;;;;;;;8.09;80.95;99201.84;10296003;28;20113;-88
2022/11/21 01:37:33;;;;;;;1.83;0.30;;;;;;;8.10;80.72;99195.47;10314679;28;20053;-89
2022/11/21 01:43:01;;;;;;;2.05;0.85;;;;;;;8.14;80.26;99185.22;10309956;28;20046;-90
2022/11/21 01:48:03;;;;;;;;;;;;;;;8.20;80.36;99186.34;10299294;28;20058;-89
2022/11/21 01:53:04;;;;;;;7.10;0.40;;;;;;;8.14;79.92;99194.09;10315011;28;19922;-89
2022/11/21 01:58:07;;;;;;;1.90;0.50;;;;;;;8.10;80.52;99192.00;10312832;28;20076;-90
2022/11/21 02:03:17;;;;;;;3.92;0.20;;;;;;;8.06;80.21;99188.03;10310063;28;20045;-89
2022/11/21 02:08:22;;;;;;;5.22;0.52;;;;;;;8.03;80.35;99183.88;10291520;28;20046;-89
2022/11/21 02:13:24;;;;;;;6.55;0.40;;;;;;;8.04;80.33;99190.88;10298187;28;20101;-89
2022/11/21 02:18:25;;;;;;;6.63;0.50;;;;;;;8.09;80.58;99177.75;10322340;28;20356;-89
2022/11/21 02:23:40;;;;;;;1.75;0.40;;;;;;;8.11;80.16;99166.88;10286118;28;20037;-90
2022/11/21 02:28:43;;;;;;;6.78;0.52;;;;;;;8.11;80.06;99174.91;10299059;28;20027;-89
2022/11/21 02:33:44;;;;;;;5.70;0.47;;;;;;;8.12;80.21;99179.25;10287427;28;20094;-88
2022/11/21 02:38:46;;;;;;;7.63;0.73;;;;;;;8.16;80.01;99187.72;10302147;28;20050;-88
2022/11/21 02:43:54;;;;;;;4.50;0.68;;;;;;;8.09;79.81;99198.34;10293459;28;20050;-87
2022/11/21 02:48:57;;;;;;;10.82;1.02;;;;;;;8.12;79.56;99196.13;10287031;28;20088;-89
2022/11/21 02:53:58;;;;;;;6.90;0.70;;;;;;;8.11;79.76;99198.97;10314712;28;20050;-89
2022/11/21 02:59:00;;;;;;;4.47;0.40;;;;;;;8.10;79.24;99208.88;10303135;28;20065;-89
2022/11/21 03:04:02;;;;;;;4.93;1.10;;;;;;;8.11;79.87;99213.19;10305641;28;20074;-89
2022/11/21 03:09:03;;;;;;;9.15;0.98;;;;;;;8.14;79.74;99212.00;10291653;28;20046;-87
2022/11/21 03:14:05;;;;;;;10.70;1.75;;;;;;;8.13;79.30;99221.03;10311353;28;20058;-88
2022/11/21 03:19:06;;;;;;;7.28;1.13;;;;;;;8.04;79.89;99217.66;10290953;28;20042;-87
2022/11/21 03:24:08;;;;;;;3.80;0.57;;;;;;;8.02;80.04;99225.03;10301433;28;20038;-86
2022/11/21 03:29:10;;;;;;;14.38;0.95;;;;;;;7.99;79.44;99224.59;10287560;28;20504;-87
2022/11/21 03:34:11;;;;;;;8.65;0.70;;;;;;;8.04;79.13;99214.97;10300410;28;20105;-87
2022/11/21 03:39:13;;;;;;;7.40;1.25;;;;;;;7.90;79.67;99235.38;10290577;28;20046;-88
2022/11/21 03:44:15;;;;;;;6.13;0.75;;;;;;;7.91;79.76;99237.03;10305421;28;20187;-88
2022/11/21 03:49:16;;;;;;;5.68;1.35;;;;;;;7.96;79.96;99228.47;10286142;28;20409;-87
2022/11/21 03:54:18;;;;;;;11.13;0.90;;;;;;;8.01;79.64;99235.94;10288616;28;20042;-88
2022/11/21 03:59:19;;;;;;;4.68;1.20;;;;;;;8.01;79.75;99226.03;10311268;28;20042;-87
2022/11/21 04:04:21;;;;;;;7.63;1.60;;;;;;;8.02;79.85;99235.75;10309976;28;20046;-88
2022/11/21 04:09:22;;;;;;;7.18;0.95;;;;;;;8.06;79.97;99237.03;10324419;28;20043;-87
2022/11/21 04:14:24;;;;;;;6.30;0.90;;;;;;;8.16;79.91;99238.59;10305713;28;20560;-89
2022/11/21 04:19:25;;;;;;;8.10;0.73;;;;;;;8.25;79.78;99240.13;10307901;28;20069;-87
2022/11/21 04:24:26;;;;;;;6.22;1.55;;;;;;;8.34;79.36;99247.03;10304653;28;20144;-89
2022/11/21 04:29:28;;;;;;;10.45;0.85;;;;;;;8.39;79.59;99244.59;10259551;28;20074;-89
2022/11/21 04:34:30;;;;;;;6.38;1.10;;;;;;;8.44;79.62;99246.75;10247064;28;20118;-89
2022/11/21 04:39:31;;;;;;;8.98;1.52;;;;;;;8.54;79.01;99250.78;10237196;29;20106;-89
2022/11/21 04:44:33;;;;;;;4.80;1.10;;;;;;;8.49;79.87;99252.34;10235353;29;20054;-89
2022/11/21 04:49:35;;;;;;;7.05;0.73;;;;;;;8.45;79.61;99246.56;10248583;28;20111;-91
2022/11/21 04:54:36;;;;;;;6.03;0.82;;;;;;;8.46;79.17;99253.56;10257666;28;20043;-91
2022/11/21 04:59:37;;;;;;;6.50;0.70;;;;;;;8.46;79.25;99248.22;10254759;28;20047;-90
2022/11/21 05:04:42;;;;;;;9.07;1.98;;;;;;;8.45;79.59;99243.91;10230819;28;20086;-88
2022/11/21 05:09:43;;;;;;;10.30;0.85;;;;;;;8.42;79.03;99244.25;10254948;28;20480;-90
2022/11/21 05:14:45;;;;;;;3.08;0.63;;;;;;;8.44;78.80;99252.94;10259690;28;20110;-90
2022/11/21 05:19:46;;;;;;;4.22;0.52;;;;;;;8.46;78.97;99245.53;10240030;28;20123;-88
2022/11/21 05:24:48;;;;;;;7.18;0.98;;;;;;;8.41;78.56;99247.09;10249824;28;20070;-90
2022/11/21 05:29:49;;;;;;;5.93;2.15;;;;;;;8.40;78.94;99250.81;10273196;23;20023;-64
2022/11/21 05:34:51;;;;;;;2.03;0.82;;;;;;;8.41;78.97;99257.81;10194341;29;20048;-62
2022/11/21 05:39:52;;;;;;;5.68;0.70;;;;;;;8.34;78.75;99253.19;10236479;28;20051;-62
2022/11/21 05:44:53;;;;;;;6.07;1.48;;;;;;;8.33;78.70;99254.25;10239524;28;20035;-62
2022/11/21 05:49:55;;;;;;;4.70;0.80;;;;;;;8.21;79.56;99269.09;10238592;28;20028;-62
2022/11/21 05:54:56;;;;;;;6.10;0.70;;;;;;;8.07;79.66;99278.81;10246027;28;20047;-63
2022/11/21 05:59:57;;;;;;;7.85;1.38;;;;;;;7.98;79.97;99266.56;10241394;29;20044;-62
2022/11/21 06:04:59;;;;;;;3.70;0.50;;;;;;;7.85;79.66;99253.84;10242431;28;20035;-63
2022/11/21 06:10:00;;;;;;;6.30;1.23;;;;;;;7.80;79.54;99255.41;10240166;28;20036;-62
2022/11/21 06:15:02;;;;;;;3.22;0.57;;;;;;;7.83;79.17;99244.34;10241408;28;20031;-62
2022/11/21 06:20:03;;;;;;;9.30;2.10;;;;;;;7.75;79.12;99242.59;10235557;28;20044;-63
2022/11/21 06:25:06;;;;;;;7.38;0.75;;;;;;;7.62;79.00;99261.13;10229130;29;20043;-62
2022/11/21 06:30:08;;;;;;;6.90;1.25;;;;;;;7.53;79.43;99258.53;10223196;29;20051;-62
2022/11/21 06:35:09;;;;;;;7.32;1.15;;;;;;;7.51;79.21;99267.75;10226552;29;20079;-62
2022/11/21 06:40:11;;;;;;;5.00;0.90;;;;;;;7.51;80.37;99251.72;10227132;29;20321;-63
2022/11/21 06:45:12;;;;;;;3.13;0.68;;;;;;;7.50;79.89;99258.91;10228731;29;20044;-63
2022/11/21 06:50:14;;;;;;;5.00;1.10;;;;;;;7.50;80.48;99252.72;10200942;28;20047;-59
2022/11/21 06:55:15;;;;;;;3.97;0.73;;;;;;;7.52;79.42;99272.94;10190973;29;20562;-59
2022/11/21 07:00:17;;;;;;;10.85;1.17;;;;;;;7.47;80.05;99277.16;10188107;29;20645;-61
2022/11/21 07:05:19;;;;;;;6.50;1.88;;;;;;;7.51;80.67;99287.31;10191798;28;20051;-58
2022/11/21 07:10:20;;;;;;;3.75;0.77;;;;;;;7.54;80.69;99286.09;10195204;29;20075;-58
2022/11/21 07:15:21;;;;;;;8.20;1.00;;;;;;;7.64;80.27;99269.78;10194939;29;20064;-61
2022/11/21 07:20:23;;;;;;;3.63;0.90;;;;;;;7.73;79.86;99276.72;10196292;29;20122;-58
2022/11/21 07:25:24;;;;;;;2.95;1.02;;;;;;;7.86;80.12;99286.75;10198498;29;20068;-59
2022/11/21 07:30:26;;;;;;;5.93;1.02;;;;;;;7.81;80.50;99295.34;10198447;29;20119;-58
2022/11/21 07:35:27;;;;;;;2.90;1.00;;;;;;;7.91;79.70;99290.56;10198456;29;20048;-62
2022/11/21 07:40:32;;;;;;;2.97;1.10;;;;;;;7.94;80.77;99308.91;10188672;29;20507;-62
2022/11/21 07:45:33;;;;;;;4.57;1.00;;;;;;;8.06;80.24;99319.16;10190347;29;20067;-62
2022/11/21 07:50:35;;;;;;;5.47;1.00;;;;;;;7.97;80.86;99312.25;10189194;29;20063;-62
2022/11/21 07:55:36;;;;;;;5.72;0.95;;;;;;;8.04;80.58;99313.19;10170332;29;20139;-64
2022/11/21 08:00:44;;;;;;;1.92;0.90;;;;;;;8.06;80.45;99298.59;10194130;29;20066;-64
2022/11/21 08:05:46;;;;;;;7.35;1.83;;;;;;;8.16;80.66;99297.47;10192776;29;20139;-63
2022/11/21 08:10:47;;;;;;;7.25;1.90;;;;;;;8.18;80.58;99288.22;10189370;29;20145;-62
2022/11/21 08:15:48;;;;;;;4.93;1.10;;;;;;;8.20;79.94;99286.19;10171138;29;20143;-63
2022/11/21 08:20:50;;;;;;;7.53;1.42;;;;;;;8.29;79.39;99286.91;10185279;29;20142;-63
2022/11/21 08:25:51;;;;;;;7.28;2.35;;;;;;;8.30;79.33;99293.94;10186698;29;20063;-63
2022/11/21 08:30:53;;;;;;;7.40;1.70;;;;;;;8.33;79.42;99290.88;10188997;29;20068;-64
2022/11/21 08:35:54;;;;;;;7.55;1.55;;;;;;;8.42;79.85;99291.63;10188820;29;20131;-65
2022/11/21 08:46:18;;;;;;;4.78;1.60;;;;;;;8.45;79.44;99292.09;10186889;29;20055;-64
2022/11/21 08:51:20;;;;;;;7.10;1.70;;;;;;;8.47;79.69;99297.25;10184329;29;20588;-62
2022/11/21 08:56:21;;;;;;;5.38;1.85;;;;;;;8.64;79.83;99285.28;10185280;29;20063;-65
2022/11/21 09:01:23;;;;;;;6.10;1.73;;;;;;;8.74;79.92;99280.44;10188312;29;20555;-63
2022/11/21 09:06:24;;;;;;;5.15;1.98;;;;;;;8.86;79.75;99271.91;10184119;29;20059;-64
2022/11/21 09:11:26;;;;;;;3.28;1.00;;;;;;;9.02;79.39;99270.81;10188725;29;20052;-64
2022/11/21 09:21:48;;;;;;;6.43;1.48;;;;;;;9.25;79.50;99276.78;10181948;29;20934;-65
2022/11/21 09:26:50;;;;;;;7.85;1.50;;;;;;;9.37;79.29;99287.00;10193519;29;20071;-65
2022/11/21 09:31:51;;;;;;;7.45;1.20;;;;;;;9.34;79.59;99277.50;10197187;29;20095;-65
2022/11/21 09:36:54;;;;;;;8.27;1.50;;;;;;;9.37;79.48;99278.94;10186331;29;20131;-67
2022/11/21 09:42:33;;;;;;;8.75;1.80;;;;;;;9.41;79.35;99281.03;10187133;29;20122;-64
2022/11/21 09:47:43;;;;;;;8.32;2.00;;;;;;;9.41;78.88;99285.56;10185899;29;20140;-63
2022/11/21 09:53:19;;;;;;;5.82;1.95;;;;;;;9.49;79.34;99282.75;10186091;29;20112;-64
2022/11/21 09:58:33;;;;;;;6.88;1.60;;;;;;;9.46;79.29;99275.94;10163682;29;20486;-63
2022/11/21 10:03:41;;;;;;;5.63;0.90;;;;;;;9.39;79.16;99269.66;10192220;29;20053;-64
2022/11/21 10:08:57;;;;;;;3.72;1.08;;;;;;;9.36;79.06;99254.00;10194236;29;20546;-62
2022/11/21 10:14:15;;;;;;;7.22;0.90;;;;;;;9.48;78.44;99254.28;10183595;29;20136;-64
2022/11/21 10:19:35;;;;;;;6.05;1.15;;;;;;;9.54;78.44;99248.13;10184760;29;20172;-63
2022/11/21 10:25:10;;;;;;;5.72;0.60;;;;;;;9.84;77.85;99247.88;10180893;29;20081;-63
2022/11/21 10:30:16;;;;;;;2.35;0.55;;;;;;;10.03;77.63;99241.78;10178461;29;20036;-63
2022/11/21 10:35:29;;;;;;;5.00;0.57;;;;;;;10.23;77.39;99227.56;10189737;29;20036;-63
2022/11/21 10:40:43;;;;;;;3.58;0.65;;;;;;;10.30;77.24;99221.22;10188932;29;20068;-63
2022/11/21 10:45:44;;;;;;;13.52;0.98;;;;;;;10.42;77.06;99215.28;10170064;29;20171;-64
2022/11/21 10:50:54;;;;;;;3.90;0.40;;;;;;;10.37;76.46;99198.94;10184760;29;20135;-63
2022/11/21 10:56:00;;;;;;;4.00;0.45;;;;;;;10.31;76.58;99189.84;10185414;29;20043;-61
2022/11/21 11:01:02;;;;;;;3.17;0.50;;;;;;;10.38;76.11;99193.38;10188191;29;20134;-62
2022/11/21 11:06:03;;;;;;;2.47;0.40;;;;;;;10.46;75.97;99197.72;10188960;29;20044;-62
2022/11/21 11:11:06;;;;;;;1.83;0.52;;;;;;;10.58;76.00;99182.66;10196190;29;20138;-64
2022/11/21 11:16:10;;;;;;;2.28;0.35;;;;;;;10.71;75.18;99176.47;10180925;29;20043;-64
2022/11/21 11:21:19;;;;;;;4.20;0.80;;;;;;;10.79;74.92;99162.81;10191728;29;20178;-64
2022/11/21 11:26:26;;;;;;;3.55;0.55;;;;;;;10.93;74.12;99162.81;10177458;29;20075;-63
2022/11/21 11:31:39;;;;;;;0.40;0.20;;;;;;;10.77;74.22;99156.00;10198398;29;20138;-64
2022/11/21 11:36:52;;;;;;;2.50;0.30;;;;;;;10.99;73.99;99145.84;10198325;29;20515;-64
2022/11/21 11:47:41;;;;;;;2.72;0.43;;;;;;;10.94;73.71;99132.19;10196569;29;20122;-63
2022/11/21 11:53:09;;;;;;;3.60;0.52;;;;;;;10.90;73.54;99121.88;10198174;29;20044;-63
2022/11/21 11:58:20;;;;;;;2.05;0.70;;;;;;;11.03;72.91;99114.81;10189005;29;20074;-64
2022/11/21 12:03:39;;;;;;;4.20;0.32;;;;;;;10.84;73.08;99117.34;10197638;29;20059;-63
2022/11/21 12:08:54;;;;;;;1.88;0.38;;;;;;;10.83;72.92;99102.22;10195171;29;20111;-63
2022/11/21 12:14:08;;;;;;;3.75;0.50;;;;;;;10.83;72.25;99096.03;10193848;29;20047;-63
2022/11/21 12:19:15;;;;;;;4.88;0.60;;;;;;;11.02;72.09;99086.25;10195729;29;20131;-63
2022/11/21 12:24:19;;;;;;;3.65;0.40;;;;;;;11.08;72.06;99069.31;10189902;29;20050;-64
2022/11/21 12:29:39;;;;;;;5.68;0.40;;;;;;;11.17;71.99;99061.84;10197949;29;20147;-65
2022/11/21 12:35:06;;;;;;;4.80;0.30;;;;;;;11.19;71.67;99047.13;10187388;29;20062;-62
2022/11/21 12:40:26;;;;;;;1.48;0.60;;;;;;;11.21;71.10;99031.59;10194874;29;20046;-63
2022/11/21 12:45:45;;;;;;;6.63;1.00;;;;;;;11.12;70.77;99024.81;10194339;29;20442;-64
2022/11/21 12:56:46;;;;;;;7.03;0.30;;;;;;;10.98;70.67;99028.56;10191330;28;20138;-64
2022/11/21 13:02:26;;;;;;;5.05;1.67;;;;;;;11.00;70.93;99034.56;10193082;29;20067;-65
2022/11/21 13:07:30;;;;;;;5.72;0.40;;;;;;;10.91;70.16;99028.59;10181520;29;20060;-65
2022/11/21 13:12:39;;;;;;;3.45;0.40;;;;;;;11.00;70.28;99013.91;10194378;29;20056;-64
2022/11/21 13:17:47;;;;;;;4.10;0.73;;;;;;;11.16;70.05;99006.38;10188615;29;20563;-63
2022/11/21 13:22:52;;;;;;;3.58;0.40;;;;;;;11.11;69.99;98999.78;10181814;29;20059;-63
2022/11/21 13:28:15;;;;;;;5.50;0.45;;;;;;;11.17;69.66;98995.41;10188705;29;20479;-64
2022/11/21 13:33:45;;;;;;;7.05;0.50;;;;;;;11.23;69.26;98993.72;10187847;29;20051;-65
2022/11/21 13:38:54;;;;;;;0.60;0.20;;;;;;;11.30;68.66;98987.28;10191179;29;20040;-65
2022/11/21 13:44:28;;;;;;;2.67;0.30;;;;;;;11.22;68.76;98965.19;10183739;29;20054;-64
2022/11/21 13:49:42;;;;;;;3.53;1.15;;;;;;;11.17;68.55;98967.69;10183870;29;20110;-65
2022/11/21 13:55:06;;;;;;;1.58;0.25;;;;;;;11.20;68.54;98962.72;10185911;29;20129;-63
2022/11/21 14:00:31;;;;;;;6.45;0.70;;;;;;;11.37;68.17;98954.13;10187251;29;20139;-64
2022/11/21 14:05:52;;;;;;;13.95;3.97;;;;;;;11.45;68.45;98935.91;10185575;29;20491;-65
2022/11/21 14:10:55;;;;;;;3.50;0.55;;;;;;;11.56;67.79;98928.97;10188917;29;20126;-64
2022/11/21 14:16:17;;;;;;;7.25;0.40;;;;;;;11.55;67.85;98921.94;10190904;29;20062;-64
2022/11/21 14:21:25;;;;;;;0.73;0.30;;;;;;;11.63;67.70;98904.69;10181818;29;20130;-64
2022/11/21 14:26:30;;;;;;;6.32;0.75;;;;;;;11.69;67.72;98893.09;10184952;29;20086;-64
2022/11/21 14:31:44;;;;;;;2.55;0.60;;;;;;;11.73;67.56;98879.97;10203630;29;20545;-65
2022/11/21 14:36:45;;;;;;;3.45;0.30;;;;;;;11.70;67.56;98884.75;10223594;28;20067;-65
2022/11/21 14:41:50;;;;;;;8.20;1.08;;;;;;;11.61;67.81;98880.72;10223632;28;20118;-65
2022/11/21 14:47:05;;;;;;;6.07;1.10;;;;;;;11.42;67.68;98873.63;10225950;28;20130;-63
2022/11/21 14:52:16;;;;;;;3.88;0.60;;;;;;;11.39;67.44;98866.78;10226441;28;20566;-63
2022/11/21 14:57:31;;;;;;;4.38;0.70;;;;;;;11.33;67.61;98870.34;10221060;28;20565;-63
2022/11/21 15:02:33;;;;;;;5.25;1.05;;;;;;;11.23;67.89;98873.50;10221523;28;20175;-61
2022/11/21 15:07:42;;;;;;;2.55;0.70;;;;;;;11.09;68.02;98856.63;10223366;28;20499;-61
2022/11/21 15:12:47;;;;;;;2.88;0.60;;;;;;;11.00;67.77;98862.47;10221809;28;20134;-61
2022/11/21 15:17:54;;;;;;;5.75;0.40;;;;;;;10.87;67.88;98839.19;10223200;28;20526;-62
2022/11/21 15:23:31;;;;;;;5.80;1.02;;;;;;;10.68;68.02;98816.75;10224644;28;20051;-60
2022/11/21 15:28:32;;;;;;;5.28;0.95;;;;;;;10.48;68.61;98808.78;10223721;28;20135;-60
2022/11/21 15:33:58;;;;;;;8.75;1.50;;;;;;;10.19;69.09;98796.69;10228026;28;20047;-60
2022/11/21 15:39:21;;;;;;;7.30;1.80;;;;;;;9.98;69.01;98782.50;10223655;28;20059;-60
2022/11/21 15:44:22;;;;;;;3.53;1.02;;;;;;;9.82;69.04;98766.88;10223859;28;20082;-61
2022/11/21 15:49:24;;;;;;;11.82;1.58;;;;;;;9.69;69.59;98765.84;10224231;28;20086;-62
2022/11/21 15:54:45;;;;;;;5.82;1.25;;;;;;;9.65;69.82;98736.97;10223859;28;20132;-61
2022/11/21 15:59:47;;;;;;;9.60;1.38;;;;;;;9.50;69.86;98740.72;10234001;28;20109;-60
2022/11/21 16:04:51;;;;;;;5.18;1.77;;;;;;;9.36;70.01;98747.13;10229226;28;20065;-61
2022/11/21 16:09:54;;;;;;;7.75;1.33;;;;;;;9.29;70.00;98722.16;10227213;28;20130;-63
2022/11/21 16:14:56;;;;;;;6.75;1.38;;;;;;;9.18;70.08;98712.88;10226309;28;20076;-65
2022/11/21 16:19:57;;;;;;;8.40;2.05;;;;;;;9.05;70.06;98691.47;10227596;28;20151;-64
2022/11/21 16:24:58;;;;;;;15.20;2.58;;;;;;;8.89;70.58;98684.69;10209529;28;20051;-64
2022/11/21 16:30:00;;;;;;;6.53;2.38;;;;;;;8.78;70.71;98696.00;10228818;29;20099;-64
2022/11/21 16:35:01;;;;;;;10.00;1.92;;;;;;;8.72;70.66;98687.75;10178278;29;20111;-64
2022/11/21 16:40:04;;;;;;;3.42;1.95;;;;;;;8.64;70.55;98660.34;10192025;29;20058;-64
2022/11/21 16:45:05;;;;;;;7.38;1.67;;;;;;;8.60;70.74;98657.25;10188775;29;20044;-64
2022/11/21 16:50:07;;;;;;;4.22;1.35;;;;;;;8.52;70.75;98633.34;10177964;29;20075;-64
2022/11/21 16:55:08;;;;;;;8.57;1.95;;;;;;;8.48;71.31;98629.44;10190271;29;20459;-64
2022/11/21 17:00:13;;;;;;;7.22;1.80;;;;;;;8.40;71.17;98626.94;10170819;29;20055;-64
2022/11/21 17:05:15;;;;;;;6.85;2.00;;;;;;;8.34;71.62;98610.66;10187563;29;20040;-65
2022/11/21 17:10:16;;;;;;;9.07;1.92;;;;;;;8.33;71.20;98605.50;10188159;28;20095;-65
2022/11/21 17:15:18;;;;;;;5.38;2.17;;;;;;;8.25;71.71;98600.34;10187714;29;20102;-65
2022/11/21 17:20:19;;;;;;;8.82;2.10;;;;;;;8.14;72.19;98617.84;10188798;29;20134;-65
2022/11/21 17:25:21;;;;;;;8.52;2.97;;;;;;;8.03;72.55;98621.91;10188332;29;20138;-65
2022/11/21 17:30:23;;;;;;;6.60;2.10;;;;;;;8.08;72.59;98606.09;10168937;29;20060;-65
2022/11/21 17:35:24;;;;;;;6.68;2.47;;;;;;;8.16;72.38;98601.59;10177512;29;20126;-65
2022/11/21 17:40:26;;;;;;;11.05;4.32;;;;;;;8.19;72.06;98607.31;10167753;29;20134;-65
2022/11/21 17:45:27;;;;;;;10.50;5.45;;;;;;;8.19;72.42;98595.81;10180329;29;20052;-65
2022/11/21 17:50:29;;;;;;;9.77;4.03;;;;;;;8.18;72.49;98599.53;10189843;29;20063;-66
2022/11/21 17:55:30;;;;;;;16.90;8.73;;;;;;;8.15;72.04;98592.72;10181276;29;20162;-65
2022/11/21 18:00:31;;;;;;;26.27;10.52;;;;;;;8.16;72.32;98589.00;10177514;29;20067;-65
2022/11/21 18:05:33;;;;;;;16.63;8.10;;;;;;;8.17;72.70;98579.13;10189314;29;20574;-65
2022/11/21 18:10:34;;;;;;;11.98;4.95;;;;;;;8.19;71.88;98558.34;10198936;29;20119;-64
2022/11/21 18:15:44;;;;;;;11.02;4.25;;;;;;;8.13;72.86;98558.09;10192200;29;20566;-64
2022/11/21 18:20:45;;;;;;;6.60;2.67;;;;;;;8.12;72.90;98556.47;10181947;29;20098;-64
2022/11/21 18:25:47;;;;;;;5.93;2.63;;;;;;;8.17;73.02;98560.38;10184565;29;20067;-63
2022/11/21 18:30:48;;;;;;;6.22;2.65;;;;;;;8.19;72.54;98559.16;10192564;29;20059;-64
2022/11/21 18:35:50;;;;;;;6.75;2.63;;;;;;;8.20;72.73;98560.00;10226486;28;20089;-64
2022/11/21 18:40:51;;;;;;;8.90;3.25;;;;;;;8.22;72.69;98557.94;10215310;28;20248;-65
2022/11/21 18:45:52;;;;;;;10.55;2.67;;;;;;;8.21;72.64;98578.50;10226183;28;20542;-65
2022/11/21 18:50:54;;;;;;;5.32;2.55;;;;;;;8.21;72.31;98577.69;10234722;28;20040;-61
2022/11/21 18:55:57;;;;;;;8.13;2.75;;;;;;;8.19;72.18;98585.09;10253884;28;20043;-63
2022/11/21 19:01:00;;;;;;;9.98;2.40;;;;;;;8.21;72.65;98578.50;10251812;28;20127;-63
2022/11/21 19:06:06;;;;;;;7.63;4.15;;;;;;;8.20;72.30;98570.69;10254977;28;20676;-62
2022/11/21 19:11:10;;;;;;;11.65;3.13;;;;;;;8.18;73.18;98570.91;10246991;29;20051;-60
2022/11/21 19:16:14;;;;;;;7.10;2.47;;;;;;;8.17;72.71;98560.38;10249129;29;20040;-61
2022/11/21 19:21:16;;;;;;;8.40;2.70;;;;;;;8.14;72.95;98546.41;10243061;29;20047;-61
2022/11/21 19:26:20;;;;;;;12.75;3.28;;;;;;;8.18;73.35;98543.31;10251112;28;20071;-62
2022/11/21 19:31:21;;;;;;;7.50;1.95;;;;;;;8.24;73.02;98535.28;10245444;28;20052;-62
2022/11/21 19:36:23;;;;;;;7.82;2.25;;;;;;;8.28;73.19;98538.38;10223792;29;20059;-62
2022/11/21 19:41:25;;;;;;;8.30;1.80;;;;;;;8.29;73.03;98529.31;10225483;29;20047;-62
2022/11/21 19:46:32;;;;;;;5.68;1.85;;;;;;;8.38;73.38;98522.72;10223351;29;20116;-61
2022/11/21 19:51:40;;;;;;;7.83;2.33;;;;;;;8.44;73.39;98507.72;10218152;29;20055;-63
2022/11/21 19:56:41;;;;;;;;;;;;;;;8.47;74.01;98496.56;10225999;29;20044;-62
2022/11/21 20:01:42;;;;;;;5.18;2.63;;;;;;;8.42;73.73;98499.88;10222898;29;19931;-61
2022/11/21 20:06:51;;;;;;;5.50;1.88;;;;;;;8.48;73.18;98500.91;10217765;28;20076;-62
2022/11/21 20:11:52;;;;;;;5.68;2.33;;;;;;;8.43;73.55;98484.63;10214117;29;20055;-63
2022/11/21 20:16:54;;;;;;;5.13;1.75;;;;;;;8.51;73.42;98479.06;10217895;29;20071;-62
2022/11/21 20:21:56;;;;;;;8.70;1.83;;;;;;;8.56;73.44;98468.53;10216608;29;20055;-61
2022/11/21 20:26:58;;;;;;;5.43;1.17;;;;;;;8.54;72.88;98467.94;10202778;29;20040;-62
2022/11/21 20:32:01;;;;;;;6.20;1.77;;;;;;;8.61;73.16;98459.88;10200182;29;20044;-61
2022/11/21 20:37:03;;;;;;;3.53;1.10;;;;;;;8.65;73.02;98450.38;10196736;29;20541;-60
2022/11/21 20:42:05;;;;;;;6.07;1.63;;;;;;;8.72;72.43;98451.19;10203345;29;20067;-63
2022/11/21 20:47:07;;;;;;;9.52;2.80;;;;;;;8.70;72.78;98450.59;10201886;29;20090;-62
2022/11/21 20:52:09;;;;;;;7.05;2.70;;;;;;;8.66;72.76;98444.81;10201301;29;20051;-61
2022/11/21 20:57:30;;;;;;;12.75;3.08;;;;;;;8.70;72.78;98439.88;10204397;29;20115;-63
2022/11/21 21:02:32;;;;;;;5.72;1.70;;;;;;;8.71;72.61;98430.81;10202712;29;20043;-62
2022/11/21 21:07:33;;;;;;;8.90;2.83;;;;;;;8.80;72.49;98418.00;10200485;29;20103;-62
2022/11/21 21:12:35;;;;;;;8.90;3.38;;;;;;;8.88;72.63;98420.44;10201287;29;20072;-61
2022/11/21 21:17:36;;;;;;;4.53;2.00;;;;;;;8.76;72.67;98408.75;10188652;29;20068;-59
2022/11/21 21:22:38;;;;;;;5.07;1.52;;;;;;;8.57;73.62;98402.41;10197612;29;20055;-61
2022/11/21 21:27:39;;;;;;;6.65;1.42;;;;;;;8.36;74.03;98406.97;10164639;29;20103;-61
2022/11/21 21:32:41;;;;;;;3.20;1.15;;;;;;;8.26;74.07;98420.81;10190513;29;20573;-61
2022/11/21 21:37:42;;;;;;;5.40;1.33;;;;;;;8.19;74.91;98403.09;10190330;29;20048;-61
2022/11/21 21:42:44;;;;;;;6.13;1.48;;;;;;;8.13;75.46;98402.09;10195759;29;20074;-62
2022/11/21 21:47:45;;;;;;;6.50;1.50;;;;;;;8.01;75.47;98401.88;10201169;29;20436;-61
2022/11/21 21:52:46;;;;;;;6.72;1.88;;;;;;;7.84;76.17;98385.47;10206024;29;20075;-62
2022/11/21 21:57:48;;;;;;;5.13;1.27;;;;;;;7.71;76.39;98370.22;10217288;29;20048;-64
2022/11/21 22:02:53;;;;;;;6.55;1.33;;;;;;;7.67;76.93;98360.97;10218803;29;20112;-65
2022/11/21 22:07:54;;;;;;;9.73;1.77;;;;;;;7.68;76.59;98359.97;10223559;29;20039;-64
2022/11/21 22:12:56;;;;;;;6.72;2.08;;;;;;;7.65;76.37;98363.03;10222609;29;20052;-64
2022/11/21 22:17:57;;;;;;;15.50;1.63;;;;;;;7.65;77.09;98364.91;10228049;29;20551;-64
2022/11/21 22:22:58;;;;;;;8.15;2.00;;;;;;;7.61;76.88;98369.00;10228608;29;20048;-64
2022/11/21 22:28:01;;;;;;;6.97;1.90;;;;;;;7.50;77.73;98367.75;10232291;29;20132;-65
2022/11/21 22:33:02;;;;;;;8.25;1.65;;;;;;;7.52;77.52;98374.56;10231996;29;20044;-65
2022/11/21 22:38:03;;;;;;;8.40;1.50;;;;;;;7.59;77.12;98387.13;10228152;29;20454;-64
2022/11/21 22:43:05;;;;;;;7.55;2.35;;;;;;;7.55;77.19;98381.34;10221824;29;20052;-65
2022/11/21 22:48:07;;;;;;;8.35;1.88;;;;;;;7.55;77.23;98389.38;10223081;29;20040;-64
2022/11/21 22:53:08;;;;;;;6.85;1.85;;;;;;;7.59;77.22;98384.44;10215954;29;20051;-64
2022/11/21 22:58:10;;;;;;;3.35;1.67;;;;;;;7.68;77.68;98376.00;10215284;29;20039;-64
2022/11/21 23:03:11;;;;;;;5.05;1.45;;;;;;;7.60;77.52;98381.53;10215601;29;20066;-64
2022/11/21 23:08:13;;;;;;;6.53;1.90;;;;;;;7.73;78.02;98370.03;10212485;29;20051;-64
2022/11/21 23:13:14;;;;;;;6.78;1.92;;;;;;;7.72;78.29;98365.69;10210280;29;20048;-64
2022/11/21 23:18:15;;;;;;;5.13;1.95;;;;;;;7.72;77.70;98352.31;10204916;29;20051;-64
2022/11/21 23:23:18;;;;;;;7.97;2.33;;;;;;;7.67;78.28;98334.25;10205313;29;20044;-64
2022/11/21 23:28:19;;;;;;;4.50;2.00;;;;;;;7.59;78.77;98323.75;10204007;29;20056;-64
2022/11/21 23:33:21;;;;;;;6.45;2.10;;;;;;;7.61;78.81;98321.69;10200664;29;20055;-64
2022/11/21 23:38:22;;;;;;;11.43;1.42;;;;;;;7.72;79.07;98336.28;10200390;29;20108;-64
2022/11/21 23:43:24;;;;;;;7.40;1.75;;;;;;;7.77;78.34;98338.34;10198794;29;20044;-64
2022/11/21 23:48:26;;;;;;;6.15;1.60;;;;;;;7.68;78.57;98340.41;10196986;29;20067;-65
2022/11/21 23:53:27;;;;;;;9.20;1.83;;;;;;;7.74;78.70;98339.56;10192700;29;20048;-64
2022/11/21 23:58:29;;;;;;;5.72;1.70;;;;;;;7.75;79.01;98336.69;10196662;29;20048;-62
